地図

経路データ

SID SEASON NUMBER BASIN SUBBASIN NAME ISO_TIME NATURE LAT LON WMO_WIND WMO_PRES WMO_AGENCY TRACK_TYPE DIST2LAND LANDFALL IFLAG USA_AGENCY USA_ATCF_ID USA_LAT USA_LON USA_RECORD USA_STATUS USA_WIND USA_PRES USA_SSHS USA_R34_NE USA_R34_SE USA_R34_SW USA_R34_NW USA_R50_NE USA_R50_SE USA_R50_SW USA_R50_NW USA_R64_NE USA_R64_SE USA_R64_SW USA_R64_NW USA_POCI USA_ROCI USA_RMW USA_EYE TOKYO_LAT TOKYO_LON TOKYO_GRADE TOKYO_WIND TOKYO_PRES TOKYO_R50_DIR TOKYO_R50_LONG TOKYO_R50_SHORT TOKYO_R30_DIR TOKYO_R30_LONG TOKYO_R30_SHORT TOKYO_LAND CMA_LAT CMA_LON CMA_CAT CMA_WIND CMA_PRES HKO_LAT HKO_LON HKO_CAT HKO_WIND HKO_PRES NEWDELHI_LAT NEWDELHI_LON NEWDELHI_GRADE NEWDELHI_WIND NEWDELHI_PRES NEWDELHI_CI NEWDELHI_DP NEWDELHI_POCI REUNION_LAT REUNION_LON REUNION_TYPE REUNION_WIND REUNION_PRES REUNION_TNUM REUNION_CI REUNION_RMW REUNION_R34_NE REUNION_R34_SE REUNION_R34_SW REUNION_R34_NW REUNION_R50_NE REUNION_R50_SE REUNION_R50_SW REUNION_R50_NW REUNION_R64_NE REUNION_R64_SE REUNION_R64_SW REUNION_R64_NW BOM_LAT BOM_LON BOM_TYPE BOM_WIND BOM_PRES BOM_TNUM BOM_CI BOM_RMW BOM_R34_NE BOM_R34_SE BOM_R34_SW BOM_R34_NW BOM_R50_NE BOM_R50_SE BOM_R50_SW BOM_R50_NW BOM_R64_NE BOM_R64_SE BOM_R64_SW BOM_R64_NW BOM_ROCI BOM_POCI BOM_EYE BOM_POS_METHOD BOM_PRES_METHOD NADI_LAT NADI_LON NADI_CAT NADI_WIND NADI_PRES WELLINGTON_LAT WELLINGTON_LON WELLINGTON_WIND WELLINGTON_PRES DS824_LAT DS824_LON DS824_STAGE DS824_WIND DS824_PRES TD9636_LAT TD9636_LON TD9636_STAGE TD9636_WIND TD9636_PRES TD9635_LAT TD9635_LON TD9635_WIND TD9635_PRES TD9635_ROCI NEUMANN_LAT NEUMANN_LON NEUMANN_CLASS NEUMANN_WIND NEUMANN_PRES MLC_LAT MLC_LON MLC_CLASS MLC_WIND MLC_PRES USA_GUST BOM_GUST BOM_GUST_PER REUNION_GUST REUNION_GUST_PER USA_SEAHGT USA_SEARAD_NE USA_SEARAD_SE USA_SEARAD_SW USA_SEARAD_NW STORM_SPEED STORM_DIR
1985224N18279 1985 66 NA CS DANNY 1985-08-12 00:00:00 TS 18.5000 -80.7000 25 1010 hurdat_atl main 245 245 O_____________ hurdat_atl AL041985 18.5000 -80.7000 TD 25 1010 -1 10 316
1985224N18279 1985 66 NA CS DANNY 1985-08-12 03:00:00 TS 18.8477 -81.0522 main 292 286 P_____________ AL041985 18.8477 -81.0522 TD 25 1010 -1 10 317
1985224N18279 1985 66 NA CS DANNY 1985-08-12 06:00:00 TS 19.2000 -81.4000 25 1010 hurdat_atl main 286 241 O_____________ hurdat_atl AL041985 19.2000 -81.4000 TD 25 1010 -1 10 317
1985224N18279 1985 66 NA CS DANNY 1985-08-12 09:00:00 TS 19.5574 -81.7426 main 231 182 P_____________ AL041985 19.5574 -81.7426 TD 25 1010 -1 10 317
1985224N18279 1985 66 NA CS DANNY 1985-08-12 12:00:00 TS 19.9000 -82.1000 25 1010 hurdat_atl main 182 137 O_____________ hurdat_atl AL041985 19.9000 -82.1000 TD 25 1010 -1 10 313
1985224N18279 1985 66 NA CS DANNY 1985-08-12 15:00:00 TS 20.2075 -82.4927 main 137 100 P_____________ AL041985 20.2075 -82.4927 TD 25 1010 -1 10 309
1985224N18279 1985 66 NA CS DANNY 1985-08-12 18:00:00 TS 20.5000 -82.9000 25 1011 hurdat_atl main 101 78 O_____________ hurdat_atl AL041985 20.5000 -82.9000 TD 25 1011 -1 10 308
1985224N18279 1985 66 NA CS DANNY 1985-08-12 21:00:00 TS 20.7999 -83.2927 main 84 76 P_____________ AL041985 20.7999 -83.2927 TD 25 1011 -1 10 309
1985224N18279 1985 66 NA CS DANNY 1985-08-13 00:00:00 TS 21.1000 -83.7000 25 1011 hurdat_atl main 85 55 O_____________ hurdat_atl AL041985 21.1000 -83.7000 TD 25 1011 -1 10 307
1985224N18279 1985 66 NA CS DANNY 1985-08-13 03:00:00 TS 21.3999 -84.1352 main 55 11 P_____________ AL041985 21.3999 -84.1352 TD 25 1011 -1 10 306
1985224N18279 1985 66 NA CS DANNY 1985-08-13 06:00:00 TS 21.7000 -84.6000 25 1011 hurdat_atl main 15 0 O_____________ hurdat_atl AL041985 21.7000 -84.6000 TD 25 1011 -1 11 304
1985224N18279 1985 66 NA GM DANNY 1985-08-13 09:00:00 TS 21.9923 -85.0853 main 15 15 P_____________ AL041985 21.9923 -85.0853 TD 27 1011 -1 11 303
1985224N18279 1985 66 NA GM DANNY 1985-08-13 12:00:00 TS 22.3000 -85.6000 30 1011 hurdat_atl main 76 76 O_____________ hurdat_atl AL041985 22.3000 -85.6000 TD 30 1011 -1 12 304
1985224N18279 1985 66 NA GM DANNY 1985-08-13 15:00:00 TS 22.6424 -86.1426 main 137 137 P_____________ AL041985 22.6424 -86.1426 TD 30 1011 -1 12 305
1985224N18279 1985 66 NA GM DANNY 1985-08-13 18:00:00 TS 23.0000 -86.7000 30 1011 hurdat_atl main 170 168 O_____________ hurdat_atl AL041985 23.0000 -86.7000 TD 30 1011 -1 12 305
1985224N18279 1985 66 NA GM DANNY 1985-08-13 21:00:00 TS 23.3499 -87.2577 main 202 202 P_____________ AL041985 23.3499 -87.2577 TD 32 1010 -1 12 305
1985224N18279 1985 66 NA GM DANNY 1985-08-14 00:00:00 TS 23.7000 -87.8000 35 1010 hurdat_atl main 245 245 O_____________ hurdat_atl AL041985 23.7000 -87.8000 TS 35 1010 0 12 306
1985224N18279 1985 66 NA GM DANNY 1985-08-14 03:00:00 TS 24.0498 -88.3078 main 279 279 P_____________ AL041985 24.0498 -88.3078 TS 40 1008 0 12 307
1985224N18279 1985 66 NA GM DANNY 1985-08-14 06:00:00 TS 24.4000 -88.8000 45 1007 hurdat_atl main 324 324 O_____________ hurdat_atl AL041985 24.4000 -88.8000 TS 45 1007 0 11 307
1985224N18279 1985 66 NA GM DANNY 1985-08-14 09:00:00 TS 24.7424 -89.3078 main 364 364 P_____________ AL041985 24.7424 -89.3078 TS 47 1005 0 11 308
1985224N18279 1985 66 NA GM DANNY 1985-08-14 12:00:00 TS 25.1000 -89.8000 50 1004 hurdat_atl main 420 402 O_____________ hurdat_atl AL041985 25.1000 -89.8000 TS 50 1004 0 11 311
1985224N18279 1985 66 NA GM DANNY 1985-08-14 15:00:00 TS 25.4849 -90.2653 main 402 357 P_____________ AL041985 25.4849 -90.2653 TS 55 1002 0 11 315
1985224N18279 1985 66 NA GM DANNY 1985-08-14 18:00:00 TS 25.9000 -90.7000 60 1001 hurdat_atl main 357 312 O_____________ hurdat_atl AL041985 25.9000 -90.7000 TS 60 1001 0 11 318
1985224N18279 1985 66 NA GM DANNY 1985-08-14 21:00:00 TS 26.3349 -91.1153 main 313 263 P_____________ AL041985 26.3349 -91.1153 TS 65 999 1 12 321
1985224N18279 1985 66 NA GM DANNY 1985-08-15 00:00:00 TS 26.8000 -91.5000 70 997 hurdat_atl main 263 223 O_____________ hurdat_atl AL041985 26.8000 -91.5000 HU 70 997 1 12 324
1985224N18279 1985 66 NA GM DANNY 1985-08-15 03:00:00 TS 27.2850 -91.8801 main 223 189 P_____________ AL041985 27.2850 -91.8801 HU 72 996 1 12 328
1985224N18279 1985 66 NA GM DANNY 1985-08-15 06:00:00 TS 27.8000 -92.2000 75 995 hurdat_atl main 189 134 O_____________ hurdat_atl AL041985 27.8000 -92.2000 HU 75 995 1 12 335
1985224N18279 1985 66 NA GM DANNY 1985-08-15 09:00:00 TS 28.3571 -92.4448 main 123 73 P_____________ AL041985 28.3571 -92.4448 HU 77 991 1 12 342
1985224N18279 1985 66 NA GM DANNY 1985-08-15 12:00:00 TS 28.9000 -92.6000 80 988 hurdat_atl main 73 34 O_____________ hurdat_atl AL041985 28.9000 -92.6000 HU 80 988 1 10 347
1985224N18279 1985 66 NA GM DANNY 1985-08-15 15:00:00 TS 29.3087 -92.6866 main 34 9 P_____________ AL041985 29.3087 -92.6866 HU 80 987 1 9 353
1985224N18279 1985 66 NA GM DANNY 1985-08-15 16:30:00 TS 29.6000 -92.7000 80 987 hurdat_atl main 9 0 O_____________ hurdat_atl AL041985 29.6000 -92.7000 L HU 80 987 1 14 0
1985224N18279 1985 66 NA NA DANNY 1985-08-15 18:00:00 TS 30.0000 -92.7000 70 988 hurdat_atl main 0 0 O_____________ hurdat_atl AL041985 30.0000 -92.7000 HU 70 988 1 13 5
1985224N18279 1985 66 NA NA DANNY 1985-08-15 21:00:00 TS 30.5750 -92.5938 main 0 0 P_____________ AL041985 30.5750 -92.5938 HU 60 990 0 10 15
1985224N18279 1985 66 NA NA DANNY 1985-08-16 00:00:00 TS 31.0000 -92.4000 50 992 hurdat_atl main 0 0 O_____________ hurdat_atl AL041985 31.0000 -92.4000 TS 50 992 0 10 19
1985224N18279 1985 66 NA NA DANNY 1985-08-16 03:00:00 TS 31.5074 -92.2222 main 0 0 P_____________ AL041985 31.5074 -92.2222 TS 45 994 0 11 19
1985224N18279 1985 66 NA NA DANNY 1985-08-16 06:00:00 TS 32.0000 -92.0000 40 997 hurdat_atl main 0 0 O_____________ hurdat_atl AL041985 32.0000 -92.0000 TS 40 997 0 10 23
1985224N18279 1985 66 NA NA DANNY 1985-08-16 09:00:00 TS 32.4648 -91.7445 main 0 0 P_____________ AL041985 32.4648 -91.7445 TS 35 998 0 10 29
1985224N18279 1985 66 NA NA DANNY 1985-08-16 12:00:00 TS 32.9000 -91.4000 30 1000 hurdat_atl main 0 0 O_____________ hurdat_atl AL041985 32.9000 -91.4000 TD 30 1000 -1 11 38
1985224N18279 1985 66 NA NA DANNY 1985-08-16 15:00:00 TS 33.3224 -90.9450 main 0 0 P_____________ AL041985 33.3224 -90.9450 TD 30 1001 -1 12 46
1985224N18279 1985 66 NA NA DANNY 1985-08-16 18:00:00 TS 33.7000 -90.4000 30 1002 hurdat_atl main 0 0 O_____________ hurdat_atl AL041985 33.7000 -90.4000 TD 30 1002 -1 12 53
1985224N18279 1985 66 NA NA DANNY 1985-08-16 21:00:00 TS 34.0297 -89.8297 main 0 0 P_____________ AL041985 34.0297 -89.8297 TD 30 1003 -1 12 59
1985224N18279 1985 66 NA NA DANNY 1985-08-17 00:00:00 TS 34.3000 -89.2000 30 1004 hurdat_atl main 0 0 O_____________ hurdat_atl AL041985 34.3000 -89.2000 TD 30 1004 -1 12 65
1985224N18279 1985 66 NA NA DANNY 1985-08-17 03:00:00 TS 34.5222 -88.5221 main 0 0 P_____________ AL041985 34.5222 -88.5221 TD 30 1005 -1 12 71
1985224N18279 1985 66 NA NA DANNY 1985-08-17 06:00:00 TS 34.7000 -87.8000 30 1006 hurdat_atl main 0 0 O_____________ hurdat_atl AL041985 34.7000 -87.8000 TD 30 1006 -1 12 74
1985224N18279 1985 66 NA NA DANNY 1985-08-17 09:00:00 TS 34.8572 -87.0571 main 0 0 P_____________ AL041985 34.8572 -87.0571 TD 30 1007 -1 13 76
1985224N18279 1985 66 NA NA DANNY 1985-08-17 12:00:00 TS 35.0000 -86.3000 30 1008 hurdat_atl main 0 0 O_____________ hurdat_atl AL041985 35.0000 -86.3000 TD 30 1008 -1 13 77
1985224N18279 1985 66 NA NA DANNY 1985-08-17 15:00:00 TS 35.1497 -85.5423 main 0 0 P_____________ AL041985 35.1497 -85.5423 TD 30 1009 -1 13 76
1985224N18279 1985 66 NA NA DANNY 1985-08-17 18:00:00 TS 35.3000 -84.8000 30 1010 hurdat_atl main 0 0 O_____________ hurdat_atl AL041985 35.3000 -84.8000 TD 30 1010 -1 12 75
1985224N18279 1985 66 NA NA DANNY 1985-08-17 21:00:00 TS 35.4570 -84.0924 main 0 0 P_____________ AL041985 35.4570 -84.0924 TD 27 1010 -1 12 75
1985224N18279 1985 66 NA NA DANNY 1985-08-18 00:00:00 TS 35.6000 -83.4000 25 1011 hurdat_atl main 0 0 O_____________ hurdat_atl AL041985 35.6000 -83.4000 TD 25 1011 -1 12 78
1985224N18279 1985 66 NA NA DANNY 1985-08-18 03:00:00 TS 35.7071 -82.6996 main 0 0 P_____________ AL041985 35.7071 -82.6996 TD 25 1011 -1 12 80
1985224N18279 1985 66 NA NA DANNY 1985-08-18 06:00:00 TS 35.8000 -82.0000 25 1011 hurdat_atl main 0 0 O_____________ hurdat_atl AL041985 35.8000 -82.0000 TD 25 1011 -1 11 81
1985224N18279 1985 66 NA NA DANNY 1985-08-18 09:00:00 TS 35.8921 -81.2996 main 0 0 P_____________ AL041985 35.8921 -81.2996 TD 25 1011 -1 11 80
1985224N18279 1985 66 NA NA DANNY 1985-08-18 12:00:00 TS 36.0000 -80.6000 25 1012 hurdat_atl main 0 0 O_____________ hurdat_atl AL041985 36.0000 -80.6000 TD 25 1012 -1 12 78
1985224N18279 1985 66 NA NA DANNY 1985-08-18 15:00:00 TS 36.1347 -79.8923 main 0 0 P_____________ AL041985 36.1347 -79.8923 TD 25 1012 -1 12 75
1985224N18279 1985 66 NA NA DANNY 1985-08-18 18:00:00 TS 36.3000 -79.2000 25 1012 hurdat_atl main 0 0 O_____________ hurdat_atl AL041985 36.3000 -79.2000 TD 25 1012 -1 11 72
1985224N18279 1985 66 NA NA DANNY 1985-08-18 21:00:00 TS 36.4920 -78.5423 main 0 0 P_____________ AL041985 36.4920 -78.5423 TD 25 1012 -1 11 69
1985224N18279 1985 66 NA NA DANNY 1985-08-19 00:00:00 ET 36.7000 -77.9000 25 1012 hurdat_atl main 0 0 O_____________ hurdat_atl AL041985 36.7000 -77.9000 EX 25 1012 -4 11 69
1985224N18279 1985 66 NA NA DANNY 1985-08-19 03:00:00 ET 36.8996 -77.2497 main 0 0 P_____________ AL041985 36.8996 -77.2497 EX 25 1012 -4 11 69
1985224N18279 1985 66 NA NA DANNY 1985-08-19 06:00:00 ET 37.1000 -76.6000 25 1012 hurdat_atl main 8 0 O_____________ hurdat_atl AL041985 37.1000 -76.6000 EX 25 1012 -4 11 69
1985224N18279 1985 66 NA NA DANNY 1985-08-19 09:00:00 ET 37.2921 -75.9495 main 0 0 P_____________ AL041985 37.2921 -75.9495 EX 25 1012 -4 11 69
1985224N18279 1985 66 NA NA DANNY 1985-08-19 12:00:00 ET 37.5000 -75.3000 25 1012 hurdat_atl main 34 34 O_____________ hurdat_atl AL041985 37.5000 -75.3000 EX 25 1012 -4 11 66
1985224N18279 1985 66 NA NA DANNY 1985-08-19 15:00:00 ET 37.7421 -74.6498 main 75 68 P_____________ AL041985 37.7421 -74.6498 EX 25 1012 -4 11 64
1985224N18279 1985 66 NA NA DANNY 1985-08-19 18:00:00 ET 38.0000 -74.0000 25 1013 hurdat_atl main 101 101 O_____________ hurdat_atl AL041985 38.0000 -74.0000 EX 25 1013 -4 11 64
1985224N18279 1985 66 NA NA DANNY 1985-08-19 21:00:00 ET 38.2423 -73.3419 main 157 150 P_____________ AL041985 38.2423 -73.3419 EX 22 1013 -4 11 64
1985224N18279 1985 66 NA NA DANNY 1985-08-20 00:00:00 ET 38.5000 -72.7000 20 1013 hurdat_atl main 177 177 O_____________ hurdat_atl AL041985 38.5000 -72.7000 EX 20 1013 -4 11 61
1985224N18279 1985 66 NA NA DANNY 1985-08-20 03:00:00 ET 38.7922 -72.0847 main 204 204 P_____________ AL041985 38.7922 -72.0847 EX 20 1013 -4 11 57
1985224N18279 1985 66 NA NA DANNY 1985-08-20 06:00:00 ET 39.1000 -71.5000 20 1014 hurdat_atl main 211 204 O_____________ hurdat_atl AL041985 39.1000 -71.5000 EX 20 1014 -4 11 56
1985224N18279 1985 66 NA NA DANNY 1985-08-20 09:00:00 ET 39.3922 -70.9344 main 212 200 P_____________ AL041985 39.3922 -70.9344 EX 20 1014 -4 10 55
1985224N18279 1985 66 NA NA DANNY 1985-08-20 12:00:00 ET 39.7000 -70.4000 20 1014 hurdat_atl main 201 176 O_____________ hurdat_atl AL041985 39.7000 -70.4000 EX 20 1014 -4 10 51
1985224N18279 1985 66 NA NA DANNY 1985-08-20 15:00:00 ET 40.0404 -69.8936 main 179 150 P_____________ AL041985 40.0404 -69.8936 EX 20 1014 -4 10 48
1985224N18279 1985 66 NA NA DANNY 1985-08-20 18:00:00 ET 40.4000 -69.4000 20 1014 hurdat_atl main 153 O_____________ hurdat_atl AL041985 40.4000 -69.4000 EX 20 1014 -4 10 46

IBTrACS Databaseについて

本データベースは、米国NOAAが公開する1842年以降の世界の熱帯低気圧のベストトラックデータアーカイブInternational Best Track Archive for Climate Stewardship (IBTrACS)を、ウェブで閲覧しやすい形式に変換したものです。

最終更新日:2021-11-26